Time;durP1;ratioP1;P1;durP2;ratioP2;P2;SDS_P1;SDS_P2;PMS_P1;PMS_P2;Temp;Humidity;BMP_temperature;BMP_pressure;BME280_temperature;BME280_humidity;BME280_pressure;Samples;Min_cycle;Max_cycle;Signal;HPM_P1;HPM_P2
2023/09/07 00:00:39;;;;;;;7.20;2.63;;;20.30;99.90;;;;;;5045905;28;20162;-73
2023/09/07 00:03:05;;;;;;;7.32;2.80;;;20.20;99.90;;;;;;5061174;28;20045;-73
2023/09/07 00:05:31;;;;;;;5.20;2.70;;;20.10;99.90;;;;;;5062313;28;20403;-73
2023/09/07 00:07:57;;;;;;;7.35;2.58;;;20.10;99.90;;;;;;5045827;28;20043;-73
2023/09/07 00:10:23;;;;;;;6.25;2.72;;;20.00;99.90;;;;;;5063530;28;20045;-74
2023/09/07 00:12:49;;;;;;;7.03;2.92;;;19.90;99.90;;;;;;5060585;28;20053;-73
2023/09/07 00:15:14;;;;;;;6.97;3.08;;;19.90;99.90;;;;;;5058374;28;20119;-73
2023/09/07 00:17:40;;;;;;;7.05;2.90;;;19.80;99.90;;;;;;5035694;28;20497;-76
2023/09/07 00:20:13;;;;;;;5.90;2.88;;;19.80;99.90;;;;;;5060224;28;20044;-77
2023/09/07 00:22:39;;;;;;;8.57;3.78;;;19.70;99.90;;;;;;5028035;28;20068;-73
2023/09/07 00:25:06;;;;;;;4.35;2.58;;;19.60;99.90;;;;;;5030247;28;20045;-74
2023/09/07 00:27:35;;;;;;;4.47;2.70;;;19.60;99.90;;;;;;5025563;28;20056;-73
2023/09/07 00:30:01;;;;;;;4.47;2.90;;;19.50;99.90;;;;;;5033360;28;20123;-73
2023/09/07 00:32:27;;;;;;;5.10;2.80;;;19.50;99.90;;;;;;5050118;28;20063;-74
2023/09/07 00:34:52;;;;;;;7.47;3.03;;;19.50;99.90;;;;;;5048878;28;20388;-73
2023/09/07 00:37:18;;;;;;;5.28;2.55;;;19.40;99.90;;;;;;5028930;28;20556;-75
2023/09/07 00:39:44;;;;;;;4.93;2.90;;;19.30;99.90;;;;;;5043686;28;20062;-76
2023/09/07 00:42:09;;;;;;;4.63;2.70;;;19.30;99.90;;;;;;5031291;28;20152;-76
2023/09/07 00:44:35;;;;;;;5.80;2.55;;;19.20;99.90;;;;;;5031825;28;20160;-73
2023/09/07 00:47:01;;;;;;;7.88;2.83;;;19.20;99.90;;;;;;5030857;28;20073;-73
2023/09/07 00:49:27;;;;;;;6.50;3.00;;;19.10;99.90;;;;;;5031624;28;20037;-73
2023/09/07 00:51:53;;;;;;;5.65;2.83;;;19.10;99.90;;;;;;5013831;28;20048;-76
2023/09/07 00:54:19;;;;;;;5.03;2.50;;;19.00;99.90;;;;;;5031444;28;20103;-77
2023/09/07 00:56:45;;;;;;;4.85;2.55;;;19.00;99.90;;;;;;5030383;28;20037;-76
2023/09/07 00:59:12;;;;;;;6.22;2.50;;;18.90;99.90;;;;;;5013794;28;20498;-76
2023/09/07 01:01:38;;;;;;;5.30;2.55;;;18.80;99.90;;;;;;5013427;28;20131;-76
2023/09/07 01:04:04;;;;;;;5.00;2.33;;;18.80;99.90;;;;;;5013735;28;20418;-75
2023/09/07 01:06:39;;;;;;;3.25;2.28;;;18.70;99.90;;;;;;5013570;28;20095;-76
2023/09/07 01:09:12;;;;;;;4.30;2.40;;;18.60;99.90;;;;;;5007433;28;20052;-76
2023/09/07 01:11:39;;;;;;;6.93;3.05;;;18.50;99.90;;;;;;5011578;28;20538;-76
2023/09/07 01:14:04;;;;;;;4.93;2.60;;;18.50;99.90;;;;;;5013699;28;20048;-76
2023/09/07 01:16:33;;;;;;;3.50;2.35;;;18.40;99.90;;;;;;5012712;28;20712;-76
2023/09/07 01:19:00;;;;;;;5.53;2.60;;;18.30;99.90;;;;;;5026326;28;20056;-76
2023/09/07 01:21:27;;;;;;;6.07;2.80;;;18.40;99.90;;;;;;5026974;28;20073;-76
2023/09/07 01:23:54;;;;;;;4.03;2.40;;;18.20;99.90;;;;;;5005318;28;20378;-76
2023/09/07 01:26:20;;;;;;;4.75;2.55;;;18.20;99.90;;;;;;5013433;28;20045;-78
2023/09/07 01:28:46;;;;;;;5.72;2.83;;;18.10;99.90;;;;;;5012854;28;20392;-77
2023/09/07 01:31:12;;;;;;;4.50;2.72;;;18.10;99.90;;;;;;5012522;28;20049;-74
2023/09/07 01:33:37;;;;;;;8.18;3.13;;;18.00;99.90;;;;;;4996466;28;20567;-74
2023/09/07 01:36:03;;;;;;;8.85;3.05;;;17.90;99.90;;;;;;4995832;28;20061;-77
2023/09/07 01:38:29;;;;;;;6.30;3.22;;;18.00;99.90;;;;;;5030900;28;20052;-73
2023/09/07 01:40:55;;;;;;;4.82;3.13;;;17.90;99.90;;;;;;5017153;28;20417;-74
2023/09/07 01:43:20;;;;;;;7.18;3.08;;;17.80;99.90;;;;;;5024276;28;20080;-74
2023/09/07 01:45:46;;;;;;;6.00;2.80;;;17.70;99.90;;;;;;5019257;28;20047;-74
2023/09/07 01:48:14;;;;;;;7.85;3.10;;;17.80;99.90;;;;;;5039115;28;20444;-75
2023/09/07 01:50:39;;;;;;;4.97;3.17;;;17.70;99.90;;;;;;5042248;28;20396;-77
2023/09/07 01:53:05;;;;;;;5.32;3.20;;;17.70;99.90;;;;;;5038165;28;20046;-77
2023/09/07 01:55:31;;;;;;;9.90;3.30;;;17.70;99.90;;;;;;5041836;28;20041;-75
2023/09/07 01:57:57;;;;;;;5.95;3.20;;;17.60;99.90;;;;;;5024251;28;20424;-75
2023/09/07 02:00:23;;;;;;;5.40;3.22;;;17.60;99.90;;;;;;5022133;28;20178;-76
2023/09/07 02:02:49;;;;;;;5.13;3.45;;;17.50;99.90;;;;;;5038646;28;20041;-72
2023/09/07 02:05:14;;;;;;;5.03;3.05;;;17.50;99.90;;;;;;5020269;28;20128;-76
2023/09/07 02:07:40;;;;;;;4.38;3.33;;;17.50;99.90;;;;;;5030248;28;20116;-73
2023/09/07 02:10:06;;;;;;;5.15;3.42;;;17.40;99.90;;;;;;5038865;28;20041;-73
2023/09/07 02:12:32;;;;;;;4.97;3.35;;;17.40;99.90;;;;;;5039760;28;20555;-73
2023/09/07 02:15:04;;;;;;;4.78;3.20;;;17.40;99.90;;;;;;5023568;28;20158;-75
2023/09/07 02:17:30;;;;;;;5.97;3.40;;;17.30;99.90;;;;;;5041463;28;20045;-76
2023/09/07 02:19:56;;;;;;;5.43;3.67;;;17.30;99.90;;;;;;5020612;28;20045;-76
2023/09/07 02:22:21;;;;;;;7.03;3.80;;;17.30;99.90;;;;;;5004359;28;20057;-77
2023/09/07 02:24:47;;;;;;;8.15;3.60;;;17.30;99.90;;;;;;5038539;28;20124;-74
2023/09/07 02:27:13;;;;;;;7.20;3.55;;;17.20;99.90;;;;;;5038108;28;20127;-74
2023/09/07 02:29:38;;;;;;;5.63;3.47;;;17.10;99.90;;;;;;5038658;28;20089;-72
2023/09/07 02:32:04;;;;;;;5.55;3.00;;;17.10;99.90;;;;;;5012712;28;20495;-73
2023/09/07 02:34:31;;;;;;;6.80;3.20;;;17.00;99.90;;;;;;5037968;28;20059;-77
2023/09/07 02:36:57;;;;;;;7.68;3.65;;;16.90;99.90;;;;;;5024155;28;20084;-74
2023/09/07 02:39:26;;;;;;;4.72;3.40;;;16.80;99.90;;;;;;5020285;28;20081;-73
2023/09/07 02:41:52;;;;;;;5.47;3.83;;;16.80;99.90;;;;;;5048916;28;20052;-77
2023/09/07 02:44:18;;;;;;;6.43;3.70;;;16.80;99.90;;;;;;5031762;28;20125;-76
2023/09/07 02:46:43;;;;;;;7.97;3.55;;;16.70;99.90;;;;;;5049867;28;20544;-74
2023/09/07 02:49:09;;;;;;;7.30;3.90;;;16.70;99.90;;;;;;5049748;28;20404;-72
2023/09/07 02:51:35;;;;;;;5.43;3.90;;;16.70;99.90;;;;;;5031394;28;20555;-73
2023/09/07 02:54:03;;;;;;;6.15;3.65;;;16.70;99.90;;;;;;5031136;28;20047;-76
2023/09/07 02:56:28;;;;;;;5.05;3.58;;;16.70;99.90;;;;;;5007215;28;20389;-75
2023/09/07 02:58:54;;;;;;;8.32;4.25;;;16.60;99.90;;;;;;5014300;28;20087;-76
2023/09/07 03:01:20;;;;;;;5.80;3.80;;;16.50;99.90;;;;;;5046650;28;20407;-73
2023/09/07 03:03:46;;;;;;;8.90;4.03;;;16.50;99.90;;;;;;5037366;28;20045;-75
2023/09/07 03:06:13;;;;;;;4.35;3.47;;;16.50;99.90;;;;;;5019639;28;20046;-72
2023/09/07 03:08:40;;;;;;;8.30;3.40;;;16.50;99.90;;;;;;5014278;28;20092;-76
2023/09/07 03:11:07;;;;;;;5.28;4.00;;;16.40;99.90;;;;;;5031337;28;20037;-72
2023/09/07 03:13:32;;;;;;;6.88;3.83;;;16.40;99.90;;;;;;5031000;28;20033;-73
2023/09/07 03:15:59;;;;;;;5.38;3.97;;;16.40;99.90;;;;;;5030597;28;20060;-72
2023/09/07 03:18:25;;;;;;;21.10;4.93;;;16.30;99.90;;;;;;5023686;28;20052;-76
2023/09/07 03:20:53;;;;;;;7.90;3.80;;;16.30;99.90;;;;;;5052144;28;20033;-75
2023/09/07 03:23:19;;;;;;;5.72;3.92;;;16.20;99.90;;;;;;5034663;28;20090;-75
2023/09/07 03:25:44;;;;;;;7.20;3.67;;;16.30;99.90;;;;;;5035208;28;20048;-74
2023/09/07 03:28:10;;;;;;;9.77;4.03;;;16.20;99.90;;;;;;5034295;28;20135;-75
2023/09/07 03:30:36;;;;;;;6.60;4.05;;;16.20;99.90;;;;;;5031173;28;20048;-76
2023/09/07 03:33:03;;;;;;;6.60;4.18;;;16.10;99.90;;;;;;5044455;28;20127;-76
2023/09/07 03:35:28;;;;;;;5.45;4.03;;;16.10;99.90;;;;;;5034554;28;20072;-75
2023/09/07 03:37:55;;;;;;;6.88;4.20;;;16.00;99.90;;;;;;5034707;28;20451;-76
2023/09/07 03:40:20;;;;;;;9.40;5.00;;;16.10;99.90;;;;;;5033002;28;20049;-76
2023/09/07 03:42:46;;;;;;;7.18;4.85;;;16.10;99.90;;;;;;5034061;28;20059;-76
2023/09/07 03:45:12;;;;;;;7.38;5.13;;;16.10;99.90;;;;;;5034765;28;20057;-75
2023/09/07 03:47:38;;;;;;;9.98;5.03;;;16.20;99.90;;;;;;5029261;28;20736;-76
2023/09/07 03:50:05;;;;;;;9.60;6.20;;;16.30;99.90;;;;;;5030839;28;20060;-77
2023/09/07 03:52:31;;;;;;;9.77;6.07;;;16.30;99.90;;;;;;5045018;28;20495;-77
2023/09/07 03:54:57;;;;;;;6.20;5.05;;;16.40;99.90;;;;;;5034251;28;20072;-77
2023/09/07 03:57:25;;;;;;;8.30;5.90;;;16.40;99.90;;;;;;5048939;28;20621;-76
2023/09/07 03:59:50;;;;;;;8.63;5.70;;;16.50;99.90;;;;;;5052520;28;20047;-75
2023/09/07 04:02:20;;;;;;;9.35;6.03;;;16.50;99.90;;;;;;5045232;28;20404;-77
2023/09/07 04:04:50;;;;;;;6.20;4.97;;;16.60;99.90;;;;;;5027602;28;20093;-74
2023/09/07 04:07:16;;;;;;;8.60;5.20;;;16.60;99.90;;;;;;5034679;28;20064;-74
2023/09/07 04:09:43;;;;;;;11.02;6.25;;;16.70;99.90;;;;;;5017755;28;20172;-75
2023/09/07 04:12:09;;;;;;;9.57;6.20;;;16.70;99.90;;;;;;5033067;28;20064;-75
2023/09/07 04:14:35;;;;;;;9.50;5.57;;;16.80;99.90;;;;;;5052326;28;20041;-73
2023/09/07 04:17:01;;;;;;;8.13;5.88;;;16.80;99.90;;;;;;5051821;28;20044;-74
2023/09/07 04:19:26;;;;;;;8.05;5.97;;;16.80;99.90;;;;;;5033959;28;20056;-75
2023/09/07 04:21:52;;;;;;;8.57;5.72;;;16.80;99.90;;;;;;5033773;28;20060;-73
2023/09/07 04:24:18;;;;;;;10.07;6.05;;;16.80;99.90;;;;;;5051475;28;20045;-76
2023/09/07 04:26:43;;;;;;;8.90;6.10;;;16.90;99.90;;;;;;5034307;28;20145;-75
2023/09/07 04:29:11;;;;;;;7.55;5.10;;;16.90;99.90;;;;;;5033951;28;20480;-75
2023/09/07 04:31:37;;;;;;;10.10;5.82;;;16.90;99.90;;;;;;5033083;28;20377;-74
2023/09/07 04:34:03;;;;;;;7.18;5.50;;;16.90;99.90;;;;;;5031032;28;20056;-74
2023/09/07 04:36:28;;;;;;;7.05;5.32;;;16.90;99.90;;;;;;5046046;28;20404;-76
2023/09/07 04:38:54;;;;;;;7.13;5.50;;;16.90;99.90;;;;;;5051947;28;20056;-76
2023/09/07 04:41:20;;;;;;;9.98;5.70;;;17.00;99.90;;;;;;5050854;28;20064;-74
2023/09/07 04:43:45;;;;;;;10.48;5.57;;;17.00;99.90;;;;;;5033388;28;20524;-75
2023/09/07 04:46:13;;;;;;;8.05;5.15;;;17.00;99.90;;;;;;5027299;28;20079;-75
2023/09/07 04:48:40;;;;;;;10.85;6.10;;;17.00;99.90;;;;;;5033938;28;20484;-75
2023/09/07 04:51:07;;;;;;;12.35;5.88;;;17.00;99.90;;;;;;5033504;28;20052;-74
2023/09/07 04:53:35;;;;;;;8.20;5.57;;;17.10;99.90;;;;;;5033086;28;20048;-74
2023/09/07 04:56:02;;;;;;;6.90;5.80;;;17.00;99.90;;;;;;5008384;28;20476;-74
2023/09/07 04:58:27;;;;;;;11.75;6.15;;;17.00;99.90;;;;;;5051377;28;20088;-73
2023/09/07 05:00:53;;;;;;;9.05;5.75;;;17.00;99.90;;;;;;5051206;28;20513;-74
2023/09/07 05:03:19;;;;;;;8.07;5.30;;;17.00;99.90;;;;;;5050092;28;20049;-72
2023/09/07 05:05:51;;;;;;;9.77;5.38;;;17.10;99.90;;;;;;5028703;28;20041;-76
2023/09/07 05:08:17;;;;;;;11.43;6.10;;;17.10;99.90;;;;;;5048280;28;20048;-75
2023/09/07 05:10:42;;;;;;;10.00;5.82;;;17.10;99.90;;;;;;5042651;28;20434;-73
2023/09/07 05:13:08;;;;;;;12.55;5.85;;;17.10;99.90;;;;;;5050607;28;20076;-77
2023/09/07 05:15:34;;;;;;;9.48;5.70;;;17.10;99.90;;;;;;5042212;28;20042;-75
2023/09/07 05:17:59;;;;;;;7.75;5.25;;;17.10;99.90;;;;;;5033174;28;20128;-74
2023/09/07 05:20:26;;;;;;;10.25;6.15;;;17.10;99.90;;;;;;5032869;28;20040;-75
2023/09/07 05:22:52;;;;;;;9.35;5.80;;;17.10;99.90;;;;;;5050735;28;20052;-76
2023/09/07 05:25:20;;;;;;;8.60;5.65;;;17.10;99.90;;;;;;5032725;28;20392;-77
2023/09/07 05:27:45;;;;;;;12.05;5.75;;;17.10;99.90;;;;;;5014098;28;20057;-74
2023/09/07 05:30:11;;;;;;;8.55;5.93;;;17.20;99.90;;;;;;5025848;28;20458;-74
2023/09/07 05:32:37;;;;;;;11.98;5.65;;;17.20;99.90;;;;;;5032625;28;20052;-73
2023/09/07 05:35:02;;;;;;;12.63;6.40;;;17.20;99.90;;;;;;5050408;28;20048;-74
2023/09/07 05:37:28;;;;;;;8.10;5.88;;;17.20;99.90;;;;;;5042028;28;20515;-73
2023/09/07 05:39:54;;;;;;;9.23;5.85;;;17.20;99.90;;;;;;5032188;28;20057;-74
2023/09/07 05:42:19;;;;;;;10.02;6.28;;;17.30;99.90;;;;;;5049269;28;20576;-73
2023/09/07 05:44:45;;;;;;;6.82;5.45;;;17.30;99.90;;;;;;5032500;28;20899;-74
2023/09/07 05:47:11;;;;;;;11.23;5.78;;;17.30;99.90;;;;;;5032432;28;20084;-73
2023/09/07 05:49:37;;;;;;;7.28;5.75;;;17.40;99.90;;;;;;5050509;28;20124;-73
2023/09/07 05:52:03;;;;;;;7.82;5.70;;;17.40;99.90;;;;;;5050183;28;20033;-73
2023/09/07 05:54:28;;;;;;;8.50;5.75;;;17.50;99.90;;;;;;5031943;28;20079;-73
2023/09/07 05:56:54;;;;;;;12.07;5.55;;;17.50;99.90;;;;;;5050152;28;20457;-74
2023/09/07 05:59:19;;;;;;;8.93;5.30;;;17.60;99.90;;;;;;5023609;28;20447;-76
2023/09/07 06:01:47;;;;;;;8.25;5.78;;;17.60;99.90;;;;;;5031446;28;20083;-77
2023/09/07 06:04:13;;;;;;;8.38;6.05;;;17.60;99.90;;;;;;5050137;28;20494;-77
2023/09/07 06:06:41;;;;;;;6.55;5.10;;;17.70;99.90;;;;;;5050067;28;20037;-76
2023/09/07 06:09:06;;;;;;;6.93;5.07;;;17.70;99.90;;;;;;5024821;28;20128;-77
2023/09/07 06:11:32;;;;;;;7.32;5.68;;;17.80;99.90;;;;;;5030335;28;20128;-78
2023/09/07 06:13:58;;;;;;;14.38;5.82;;;17.80;99.90;;;;;;5031832;28;20099;-78
2023/09/07 06:16:24;;;;;;;8.02;6.10;;;17.90;99.90;;;;;;5050030;28;20519;-78
2023/09/07 06:18:50;;;;;;;9.88;6.50;;;17.90;99.90;;;;;;5011873;28;20053;-78
2023/09/07 06:21:15;;;;;;;9.30;5.47;;;18.00;99.90;;;;;;5038768;28;20036;-77
2023/09/07 06:23:41;;;;;;;8.57;6.03;;;18.00;99.90;;;;;;5049674;28;20480;-74
2023/09/07 06:26:07;;;;;;;8.48;5.90;;;18.10;99.90;;;;;;5032735;28;20081;-74
2023/09/07 06:28:33;;;;;;;8.20;5.88;;;18.20;99.90;;;;;;5031713;28;20044;-76
2023/09/07 06:30:59;;;;;;;9.30;5.78;;;18.20;99.90;;;;;;5049281;28;20120;-76
2023/09/07 06:33:24;;;;;;;7.60;5.40;;;18.20;99.90;;;;;;5049450;28;20115;-76
2023/09/07 06:35:50;;;;;;;7.68;5.65;;;18.30;99.90;;;;;;5049647;28;20403;-75
2023/09/07 06:38:16;;;;;;;9.85;6.00;;;18.40;99.90;;;;;;5031368;28;20055;-74
2023/09/07 06:40:47;;;;;;;7.40;5.88;;;18.40;99.90;;;;;;5024035;28;20427;-74
2023/09/07 06:43:12;;;;;;;9.35;5.15;;;18.50;99.90;;;;;;5041629;28;20045;-75
2023/09/07 06:45:38;;;;;;;6.90;5.25;;;18.50;99.90;;;;;;5031549;28;20060;-75
2023/09/07 06:48:04;;;;;;;10.45;5.57;;;18.60;99.90;;;;;;5049631;28;20040;-74
2023/09/07 06:50:29;;;;;;;8.02;5.68;;;18.70;99.90;;;;;;5044988;28;20105;-75
2023/09/07 06:52:55;;;;;;;7.47;5.85;;;18.70;99.90;;;;;;5019591;28;20040;-72
2023/09/07 06:55:21;;;;;;;8.57;5.70;;;18.80;99.90;;;;;;5030931;28;20041;-73
2023/09/07 06:57:46;;;;;;;9.18;5.60;;;18.80;99.90;;;;;;5031818;28;20408;-74
2023/09/07 07:00:13;;;;;;;10.32;5.50;;;18.90;99.90;;;;;;5048593;28;20037;-74
2023/09/07 07:02:38;;;;;;;7.38;5.18;;;19.00;99.90;;;;;;5037643;28;20460;-75
2023/09/07 07:05:05;;;;;;;7.18;5.38;;;19.00;99.90;;;;;;5019205;28;20064;-75
2023/09/07 07:07:31;;;;;;;8.57;5.05;;;19.10;99.90;;;;;;5022422;28;20403;-74
2023/09/07 07:09:57;;;;;;;10.75;5.63;;;19.20;99.90;;;;;;5031338;28;20048;-75
2023/09/07 07:12:22;;;;;;;10.10;5.50;;;19.20;99.90;;;;;;5030155;28;20056;-74
2023/09/07 07:14:48;;;;;;;7.57;5.07;;;19.30;99.90;;;;;;5031289;28;20045;-75
2023/09/07 07:17:14;;;;;;;10.70;5.13;;;19.40;99.90;;;;;;5031384;28;20068;-75
2023/09/07 07:19:41;;;;;;;7.50;5.50;;;19.40;99.90;;;;;;5049487;28;20049;-74
2023/09/07 07:22:07;;;;;;;8.18;5.60;;;19.50;99.90;;;;;;5031261;28;20554;-75
2023/09/07 07:24:32;;;;;;;10.32;4.85;;;19.60;99.90;;;;;;5049027;28;20045;-75
2023/09/07 07:26:58;;;;;;;12.25;5.85;;;19.70;99.90;;;;;;5031373;28;20098;-74
2023/09/07 07:29:24;;;;;;;7.95;4.68;;;19.80;99.90;;;;;;5031065;28;20052;-73
2023/09/07 07:31:50;;;;;;;7.20;4.63;;;19.90;99.90;;;;;;5013509;28;20522;-76
2023/09/07 07:34:15;;;;;;;6.88;4.75;;;20.00;99.90;;;;;;5049067;28;20037;-74
2023/09/07 07:36:41;;;;;;;12.32;4.82;;;20.10;99.90;;;;;;5048975;28;20041;-74
2023/09/07 07:39:07;;;;;;;12.00;5.15;;;20.20;99.90;;;;;;5014762;28;20479;-74
2023/09/07 07:41:33;;;;;;;7.50;4.95;;;20.30;99.90;;;;;;5030906;28;20080;-76
2023/09/07 07:43:58;;;;;;;7.60;4.97;;;20.40;99.90;;;;;;5031028;28;20057;-78
2023/09/07 07:46:24;;;;;;;11.02;4.60;;;20.50;99.90;;;;;;5048367;28;20052;-74
2023/09/07 07:48:50;;;;;;;8.95;4.57;;;20.60;99.90;;;;;;5039019;28;20047;-74
2023/09/07 07:51:16;;;;;;;7.60;4.82;;;20.70;99.90;;;;;;5048881;28;20070;-75
2023/09/07 07:53:41;;;;;;;10.77;4.70;;;20.80;99.90;;;;;;5048922;28;20051;-76
2023/09/07 07:56:18;;;;;;;7.78;4.90;;;20.90;99.90;;;;;;5048666;28;20172;-74
2023/09/07 07:58:44;;;;;;;8.90;5.13;;;21.00;99.90;;;;;;5049093;28;20041;-76
2023/09/07 08:01:17;;;;;;;7.85;4.10;;;21.20;99.90;;;;;;5048993;28;20029;-77
2023/09/07 08:03:43;;;;;;;6.60;3.85;;;21.30;99.90;;;;;;5048055;28;20043;-77
2023/09/07 08:06:10;;;;;;;9.63;4.18;;;21.40;99.90;;;;;;5050560;28;20411;-79
2023/09/07 08:08:36;;;;;;;7.03;4.38;;;21.50;99.90;;;;;;5026164;28;20127;-74
2023/09/07 08:11:05;;;;;;;9.95;4.38;;;21.70;99.90;;;;;;5052539;28;20121;-80
2023/09/07 08:13:35;;;;;;;6.60;4.32;;;21.90;99.90;;;;;;5017300;28;20060;-79
2023/09/07 08:16:04;;;;;;;11.85;4.70;;;22.10;99.90;;;;;;5028547;28;20063;-76
2023/09/07 08:18:34;;;;;;;11.27;4.65;;;22.30;99.90;;;;;;5042941;28;20084;-79
2023/09/07 08:21:00;;;;;;;5.93;3.80;;;22.50;99.90;;;;;;5033885;28;20488;-78
2023/09/07 08:23:26;;;;;;;7.60;4.00;;;22.80;99.90;;;;;;5052121;28;20085;-83
2023/09/07 08:25:52;;;;;;;6.88;4.60;;;23.00;99.90;;;;;;5051649;28;20149;-80
2023/09/07 08:28:18;;;;;;;12.35;4.15;;;23.30;99.90;;;;;;5052250;28;20060;-80
2023/09/07 08:30:44;;;;;;;7.82;4.00;;;23.50;99.90;;;;;;5034631;28;20045;-80
2023/09/07 08:33:10;;;;;;;5.15;3.75;;;23.70;99.90;;;;;;5052060;28;20045;-81
2023/09/07 08:35:43;;;;;;;10.88;4.20;;;24.00;99.90;;;;;;5033237;28;20114;-76
2023/09/07 08:38:13;;;;;;;8.75;3.97;;;24.20;99.90;;;;;;5044023;28;20076;-82
2023/09/07 08:40:40;;;;;;;8.93;3.75;;;24.30;99.90;;;;;;5044396;28;20779;-80
2023/09/07 08:43:11;;;;;;;6.35;4.00;;;24.50;99.90;;;;;;5007719;28;20050;-78
2023/09/07 08:45:45;;;;;;;5.38;3.60;;;24.70;99.90;;;;;;5025348;28;20052;-79
2023/09/07 08:48:13;;;;;;;10.50;3.58;;;24.90;99.90;;;;;;5025021;28;20053;-75
2023/09/07 08:50:42;;;;;;;9.52;3.53;;;25.10;99.90;;;;;;5042686;28;20029;-77
2023/09/07 08:53:08;;;;;;;8.55;3.80;;;25.20;99.90;;;;;;5023873;28;20044;-76
2023/09/07 08:55:34;;;;;;;5.25;3.60;;;25.40;99.90;;;;;;5039719;28;20041;-80
2023/09/07 08:57:59;;;;;;;8.23;3.40;;;25.60;99.90;;;;;;5022000;28;20053;-83
2023/09/07 09:00:25;;;;;;;5.78;3.30;;;25.70;99.90;;;;;;5024830;28;20047;-80
2023/09/07 09:02:54;;;;;;;5.82;3.30;;;25.90;99.90;;;;;;5043140;28;20373;-78
2023/09/07 09:05:20;;;;;;;7.20;3.58;;;26.20;99.90;;;;;;5023150;28;20053;-79
2023/09/07 09:07:45;;;;;;;4.82;3.25;;;26.30;99.90;;;;;;5021950;28;20507;-74
2023/09/07 09:10:11;;;;;;;9.38;3.38;;;26.40;99.90;;;;;;5021889;28;20081;-78
2023/09/07 09:12:46;;;;;;;5.50;3.30;;;26.50;99.90;;;;;;5042019;28;20124;-79
2023/09/07 09:15:12;;;;;;;5.78;3.20;;;26.60;99.90;;;;;;5025374;28;20044;-77
2023/09/07 09:17:38;;;;;;;6.32;3.42;;;26.80;99.90;;;;;;5016417;28;20128;-76
2023/09/07 09:20:09;;;;;;;7.57;3.60;;;26.90;99.90;;;;;;5025557;28;20047;-74
2023/09/07 09:22:35;;;;;;;5.40;3.33;;;27.10;99.90;;;;;;5019119;28;21564;-78
2023/09/07 09:25:04;;;;;;;7.35;3.10;;;27.20;99.90;;;;;;5024596;28;20117;-77
2023/09/07 09:27:30;;;;;;;6.20;2.95;;;27.30;99.90;;;;;;5040224;28;20045;-77
2023/09/07 09:29:57;;;;;;;6.93;3.50;;;27.50;99.90;;;;;;5041988;28;20049;-76
2023/09/07 09:32:23;;;;;;;9.98;3.10;;;27.60;99.90;;;;;;5042637;28;20033;-75
2023/09/07 09:34:48;;;;;;;5.05;2.95;;;27.70;99.90;;;;;;5041790;28;20797;-78
2023/09/07 09:37:15;;;;;;;5.95;2.90;;;27.90;99.90;;;;;;5008598;28;20065;-79
2023/09/07 09:39:41;;;;;;;6.07;2.63;;;28.00;99.90;;;;;;5043584;28;20041;-80
2023/09/07 09:42:08;;;;;;;14.93;3.20;;;28.30;99.90;;;;;;5060012;28;20048;-76
2023/09/07 09:44:36;;;;;;;3.80;2.40;;;28.50;99.90;;;;;;5059347;28;20046;-80
2023/09/07 09:47:03;;;;;;;7.13;3.33;;;28.80;99.90;;;;;;5050573;28;20045;-74
2023/09/07 09:49:29;;;;;;;8.25;3.15;;;28.80;99.90;;;;;;5049110;28;20060;-78
2023/09/07 09:51:58;;;;;;;5.10;2.95;;;28.90;99.90;;;;;;5041100;28;20056;-79
2023/09/07 09:54:26;;;;;;;9.45;2.97;;;29.00;99.90;;;;;;5050195;28;20220;-76
2023/09/07 09:56:51;;;;;;;7.47;2.97;;;29.20;99.90;;;;;;5023616;28;20053;-76
2023/09/07 09:59:18;;;;;;;5.95;3.08;;;29.30;99.90;;;;;;5050149;28;20041;-79
2023/09/07 10:01:46;;;;;;;8.88;3.17;;;29.30;99.90;;;;;;5050570;28;20538;-81
2023/09/07 10:04:17;;;;;;;11.93;3.20;;;29.40;99.90;;;;;;5032373;28;20045;-75
2023/09/07 10:07:00;;;;;;;8.02;2.95;;;29.40;99.90;;;;;;5033004;28;20045;-74
2023/09/07 10:09:32;;;;;;;6.40;2.90;;;29.60;99.90;;;;;;5025043;28;20496;-74
2023/09/07 10:11:59;;;;;;;8.70;2.85;;;29.80;99.90;;;;;;5050149;28;20044;-75
2023/09/07 10:14:25;;;;;;;7.22;2.65;;;29.90;99.90;;;;;;5050344;28;20045;-77
2023/09/07 10:16:55;;;;;;;7.07;3.30;;;30.00;99.90;;;;;;5050258;28;20041;-79
2023/09/07 10:19:21;;;;;;;5.57;3.45;;;30.20;99.90;;;;;;5047310;28;20110;-78
2023/09/07 10:21:48;;;;;;;5.85;3.17;;;30.30;99.90;;;;;;5042757;28;20056;-77
2023/09/07 10:24:30;;;;;;;6.35;3.03;;;30.40;99.90;;;;;;5055247;28;20120;-80
2023/09/07 10:27:07;;;;;;;6.15;2.95;;;30.50;99.10;;;;;;5061279;28;20044;-76
2023/09/07 10:29:46;;;;;;;5.35;2.67;;;30.40;98.40;;;;;;5043408;28;20091;-74
2023/09/07 10:32:14;;;;;;;5.15;2.97;;;30.50;99.20;;;;;;5040015;28;20053;-75
2023/09/07 10:34:43;;;;;;;5.38;3.00;;;30.60;99.80;;;;;;5046223;28;20067;-75
2023/09/07 10:37:14;;;;;;;14.00;3.63;;;30.70;99.50;;;;;;5041493;28;20088;-75
2023/09/07 10:39:43;;;;;;;10.00;3.45;;;30.60;98.10;;;;;;5039983;28;20055;-75
2023/09/07 10:42:19;;;;;;;8.75;2.90;;;30.50;99.20;;;;;;5049289;28;20060;-73
2023/09/07 10:44:45;;;;;;;5.72;2.85;;;30.60;99.10;;;;;;5039979;28;20049;-73
2023/09/07 10:47:12;;;;;;;5.13;2.88;;;30.70;99.10;;;;;;5056279;28;20044;-74
2023/09/07 10:49:37;;;;;;;5.80;2.78;;;30.70;98.90;;;;;;5014617;28;20157;-75
2023/09/07 10:52:04;;;;;;;6.00;2.78;;;30.70;98.40;;;;;;5031168;28;20075;-75
2023/09/07 10:54:29;;;;;;;4.75;2.90;;;30.70;98.40;;;;;;5031563;28;20057;-74
2023/09/07 10:56:57;;;;;;;5.88;3.20;;;30.90;98.60;;;;;;5030832;28;20048;-73
2023/09/07 10:59:23;;;;;;;4.88;3.22;;;31.00;98.20;;;;;;5049589;28;20051;-74
2023/09/07 11:01:48;;;;;;;9.48;3.10;;;31.10;98.30;;;;;;5036653;28;20044;-76
2023/09/07 11:04:17;;;;;;;8.05;3.20;;;31.20;98.30;;;;;;5042688;28;20049;-80
2023/09/07 11:06:43;;;;;;;6.38;3.03;;;31.20;97.80;;;;;;5058573;28;20049;-81
2023/09/07 11:09:10;;;;;;;7.75;3.25;;;31.30;98.30;;;;;;5042196;28;20040;-79
2023/09/07 11:11:36;;;;;;;5.07;2.80;;;31.40;97.80;;;;;;5057876;28;20048;-80
2023/09/07 11:14:06;;;;;;;5.15;2.95;;;31.40;97.90;;;;;;5039974;28;20510;-79
2023/09/07 11:16:33;;;;;;;5.60;2.80;;;31.50;97.40;;;;;;5058503;28;20067;-80
2023/09/07 11:19:04;;;;;;;6.25;3.17;;;31.60;97.30;;;;;;5038822;28;20128;-80
2023/09/07 11:21:32;;;;;;;10.18;3.10;;;31.60;96.80;;;;;;5031456;28;20057;-79
2023/09/07 11:23:58;;;;;;;8.40;3.03;;;31.60;96.40;;;;;;5039693;28;20056;-77
2023/09/07 11:26:23;;;;;;;6.95;3.03;;;31.70;97.00;;;;;;5030689;28;20044;-79
2023/09/07 11:28:49;;;;;;;8.00;3.40;;;31.80;97.00;;;;;;5048828;28;20061;-79
2023/09/07 11:31:20;;;;;;;7.75;3.80;;;31.80;96.80;;;;;;5049273;28;20079;-79
2023/09/07 11:33:47;;;;;;;9.05;3.22;;;31.80;96.30;;;;;;5031082;28;20049;-82
2023/09/07 11:36:12;;;;;;;8.88;3.63;;;31.90;96.00;;;;;;5031285;28;20400;-79
2023/09/07 11:38:42;;;;;;;4.88;2.58;;;31.80;96.50;;;;;;5048727;28;20048;-78
2023/09/07 11:41:07;;;;;;;8.20;2.92;;;31.90;96.50;;;;;;5032892;28;20057;-80
2023/09/07 11:43:33;;;;;;;6.65;3.00;;;32.00;96.20;;;;;;5052763;28;20057;-80
2023/09/07 11:46:00;;;;;;;8.55;2.67;;;32.10;95.70;;;;;;5047603;28;20083;-77
2023/09/07 11:48:26;;;;;;;7.78;3.05;;;32.10;95.80;;;;;;5045250;28;20095;-78
2023/09/07 11:50:52;;;;;;;4.78;2.90;;;32.20;95.20;;;;;;5052873;28;20113;-73
2023/09/07 11:53:17;;;;;;;10.77;3.63;;;32.10;95.10;;;;;;5052991;28;20041;-75
2023/09/07 11:55:43;;;;;;;8.55;2.67;;;32.10;94.80;;;;;;5035062;28;20603;-82
2023/09/07 11:58:09;;;;;;;4.97;2.85;;;32.10;94.70;;;;;;5052645;28;20049;-74
2023/09/07 12:00:37;;;;;;;4.70;2.85;;;32.00;94.30;;;;;;5034503;28;20057;-76
2023/09/07 12:03:02;;;;;;;7.75;2.88;;;32.10;94.40;;;;;;5034306;28;20505;-74
2023/09/07 12:05:28;;;;;;;4.82;2.65;;;32.10;94.40;;;;;;5050802;28;20077;-75
2023/09/07 12:07:54;;;;;;;5.00;2.70;;;32.30;94.60;;;;;;5052453;28;20087;-73
2023/09/07 12:10:20;;;;;;;4.25;2.28;;;32.50;94.10;;;;;;5034480;28;20048;-73
2023/09/07 12:12:45;;;;;;;5.30;2.80;;;32.50;94.10;;;;;;5052143;28;20048;-73
2023/09/07 12:15:11;;;;;;;3.58;2.30;;;32.50;93.70;;;;;;5057294;28;20037;-76
2023/09/07 12:17:37;;;;;;;7.50;2.60;;;32.50;92.80;;;;;;5052462;28;20041;-72
2023/09/07 12:20:05;;;;;;;13.52;2.47;;;32.50;92.80;;;;;;5034740;28;20396;-73
2023/09/07 12:22:32;;;;;;;6.18;2.60;;;32.50;92.60;;;;;;5033944;28;20056;-75
2023/09/07 12:24:57;;;;;;;3.67;2.28;;;32.50;92.60;;;;;;5052413;28;20427;-73
2023/09/07 12:27:23;;;;;;;5.82;2.70;;;32.50;92.60;;;;;;5034318;28;20048;-73
2023/09/07 12:29:49;;;;;;;6.57;2.63;;;32.50;92.50;;;;;;5032863;28;20053;-75
2023/09/07 12:32:14;;;;;;;5.40;2.25;;;32.60;91.80;;;;;;5046254;28;20084;-75
2023/09/07 12:34:41;;;;;;;9.15;2.80;;;32.60;92.00;;;;;;5051497;28;20061;-73
2023/09/07 12:37:07;;;;;;;6.20;2.38;;;32.70;91.80;;;;;;5051004;28;20080;-73
2023/09/07 12:39:33;;;;;;;8.57;2.67;;;32.80;91.90;;;;;;5051670;28;20033;-74
2023/09/07 12:41:58;;;;;;;4.90;2.47;;;32.80;91.70;;;;;;5060161;28;20056;-73